sensor_id;sensor_type;location;lat;lon;timestamp;temperature;humidity
64499;SHT31;51087;55.718;21.122;2022-12-24T00:00:29;1.35;99.99
64499;SHT31;51087;55.718;21.122;2022-12-24T00:02:54;1.25;99.99
64499;SHT31;51087;55.718;21.122;2022-12-24T00:05:20;1.18;99.99
64499;SHT31;51087;55.718;21.122;2022-12-24T00:07:45;1.21;99.99
64499;SHT31;51087;55.718;21.122;2022-12-24T00:10:11;1.19;99.99
64499;SHT31;51087;55.718;21.122;2022-12-24T00:12:36;1.09;99.99
64499;SHT31;51087;55.718;21.122;2022-12-24T00:15:03;1.09;99.99
64499;SHT31;51087;55.718;21.122;2022-12-24T00:17:29;1.05;99.99
64499;SHT31;51087;55.718;21.122;2022-12-24T00:19:54;0.98;99.99
64499;SHT31;51087;55.718;21.122;2022-12-24T00:22:19;0.94;99.99
64499;SHT31;51087;55.718;21.122;2022-12-24T00:24:45;0.85;99.99
64499;SHT31;51087;55.718;21.122;2022-12-24T00:27:10;0.87;99.99
64499;SHT31;51087;55.718;21.122;2022-12-24T00:29:36;0.83;99.99
64499;SHT31;51087;55.718;21.122;2022-12-24T00:32:01;0.74;99.99
64499;SHT31;51087;55.718;21.122;2022-12-24T00:34:26;0.62;99.99
64499;SHT31;51087;55.718;21.122;2022-12-24T00:36:52;0.52;99.99
64499;SHT31;51087;55.718;21.122;2022-12-24T00:39:17;0.45;99.99
64499;SHT31;51087;55.718;21.122;2022-12-24T00:41:43;0.39;99.99
64499;SHT31;51087;55.718;21.122;2022-12-24T00:44:09;0.22;99.99
64499;SHT31;51087;55.718;21.122;2022-12-24T00:46:37;0.18;99.99
64499;SHT31;51087;55.718;21.122;2022-12-24T00:49:03;0.02;99.99
64499;SHT31;51087;55.718;21.122;2022-12-24T00:51:29;0.04;99.99
64499;SHT31;51087;55.718;21.122;2022-12-24T00:53:55;-0.02;99.99
64499;SHT31;51087;55.718;21.122;2022-12-24T00:56:21;-0.12;99.99
64499;SHT31;51087;55.718;21.122;2022-12-24T00:58:46;-0.20;99.99
64499;SHT31;51087;55.718;21.122;2022-12-24T01:01:12;-0.26;99.99
64499;SHT31;51087;55.718;21.122;2022-12-24T01:03:37;-0.33;99.99
64499;SHT31;51087;55.718;21.122;2022-12-24T01:06:17;-0.47;99.99
64499;SHT31;51087;55.718;21.122;2022-12-24T01:08:43;-0.42;99.99
64499;SHT31;51087;55.718;21.122;2022-12-24T01:11:10;-0.54;99.99
64499;SHT31;51087;55.718;21.122;2022-12-24T01:13:36;-0.56;99.99
64499;SHT31;51087;55.718;21.122;2022-12-24T01:16:02;-0.61;99.99
64499;SHT31;51087;55.718;21.122;2022-12-24T01:18:28;-0.67;99.99
64499;SHT31;51087;55.718;21.122;2022-12-24T01:20:59;-0.74;99.99
64499;SHT31;51087;55.718;21.122;2022-12-24T01:23:24;-0.72;99.99
64499;SHT31;51087;55.718;21.122;2022-12-24T01:25:50;-0.78;99.99
64499;SHT31;51087;55.718;21.122;2022-12-24T01:28:16;-0.82;99.99
64499;SHT31;51087;55.718;21.122;2022-12-24T01:30:42;-0.91;99.99
64499;SHT31;51087;55.718;21.122;2022-12-24T01:33:07;-0.91;99.99
64499;SHT31;51087;55.718;21.122;2022-12-24T01:35:32;-0.96;99.99
64499;SHT31;51087;55.718;21.122;2022-12-24T01:37:58;-1.00;99.99
64499;SHT31;51087;55.718;21.122;2022-12-24T01:40:25;-1.02;99.99
64499;SHT31;51087;55.718;21.122;2022-12-24T01:43:20;-1.09;99.99
64499;SHT31;51087;55.718;21.122;2022-12-24T01:48:27;-1.13;99.99
64499;SHT31;51087;55.718;21.122;2022-12-24T01:53:46;-1.09;99.99
64499;SHT31;51087;55.718;21.122;2022-12-24T01:56:13;-0.89;99.99
64499;SHT31;51087;55.718;21.122;2022-12-24T01:58:42;-0.79;99.99
64499;SHT31;51087;55.718;21.122;2022-12-24T02:01:10;-0.69;99.99
64499;SHT31;51087;55.718;21.122;2022-12-24T02:03:35;-0.68;99.99
64499;SHT31;51087;55.718;21.122;2022-12-24T02:06:01;-0.75;99.99
64499;SHT31;51087;55.718;21.122;2022-12-24T02:08:27;-0.77;99.99
64499;SHT31;51087;55.718;21.122;2022-12-24T02:13:41;-0.88;99.99
64499;SHT31;51087;55.718;21.122;2022-12-24T02:21:39;-0.84;99.99
64499;SHT31;51087;55.718;21.122;2022-12-24T02:29:55;-0.81;99.99
64499;SHT31;51087;55.718;21.122;2022-12-24T02:35:45;-0.88;99.99
64499;SHT31;51087;55.718;21.122;2022-12-24T02:38:31;-0.93;99.99
64499;SHT31;51087;55.718;21.122;2022-12-24T02:41:19;-0.93;99.99
64499;SHT31;51087;55.718;21.122;2022-12-24T02:43:49;-0.96;99.99
64499;SHT31;51087;55.718;21.122;2022-12-24T02:46:23;-1.05;99.99
64499;SHT31;51087;55.718;21.122;2022-12-24T02:48:49;-1.07;99.99
64499;SHT31;51087;55.718;21.122;2022-12-24T02:51:15;-1.17;99.99
64499;SHT31;51087;55.718;21.122;2022-12-24T02:53:41;-1.17;99.99
64499;SHT31;51087;55.718;21.122;2022-12-24T03:07:11;-1.42;99.99
64499;SHT31;51087;55.718;21.122;2022-12-24T03:09:52;-1.32;99.99
64499;SHT31;51087;55.718;21.122;2022-12-24T03:12:35;-1.24;99.99
64499;SHT31;51087;55.718;21.122;2022-12-24T03:15:04;-1.17;99.99
64499;SHT31;51087;55.718;21.122;2022-12-24T03:17:33;-1.19;99.99
64499;SHT31;51087;55.718;21.122;2022-12-24T03:20:00;-1.16;99.99
64499;SHT31;51087;55.718;21.122;2022-12-24T03:22:26;-1.17;99.99
64499;SHT31;51087;55.718;21.122;2022-12-24T03:24:52;-1.20;99.99
64499;SHT31;51087;55.718;21.122;2022-12-24T03:27:17;-1.23;99.99
64499;SHT31;51087;55.718;21.122;2022-12-24T03:29:44;-1.21;99.99
64499;SHT31;51087;55.718;21.122;2022-12-24T03:32:09;-1.23;99.99
64499;SHT31;51087;55.718;21.122;2022-12-24T03:34:35;-1.20;99.99
64499;SHT31;51087;55.718;21.122;2022-12-24T03:37:00;-1.23;99.99
64499;SHT31;51087;55.718;21.122;2022-12-24T03:39:26;-1.33;99.99
64499;SHT31;51087;55.718;21.122;2022-12-24T03:41:51;-1.30;99.99
64499;SHT31;51087;55.718;21.122;2022-12-24T03:44:17;-1.39;99.99
64499;SHT31;51087;55.718;21.122;2022-12-24T03:46:42;-1.42;99.99
64499;SHT31;51087;55.718;21.122;2022-12-24T03:49:07;-1.44;99.99
64499;SHT31;51087;55.718;21.122;2022-12-24T03:51:33;-1.39;99.99
64499;SHT31;51087;55.718;21.122;2022-12-24T03:53:59;-1.42;99.99
64499;SHT31;51087;55.718;21.122;2022-12-24T03:56:25;-1.42;99.99
64499;SHT31;51087;55.718;21.122;2022-12-24T03:58:50;-1.43;99.99
64499;SHT31;51087;55.718;21.122;2022-12-24T04:01:16;-1.36;99.99
64499;SHT31;51087;55.718;21.122;2022-12-24T04:03:42;-1.48;99.99
64499;SHT31;51087;55.718;21.122;2022-12-24T04:06:10;-1.53;99.99
64499;SHT31;51087;55.718;21.122;2022-12-24T04:08:36;-1.51;99.99
64499;SHT31;51087;55.718;21.122;2022-12-24T04:11:07;-1.53;99.99
64499;SHT31;51087;55.718;21.122;2022-12-24T04:13:32;-1.53;99.99
64499;SHT31;51087;55.718;21.122;2022-12-24T04:16:00;-1.54;99.99
64499;SHT31;51087;55.718;21.122;2022-12-24T04:18:26;-1.55;99.99
64499;SHT31;51087;55.718;21.122;2022-12-24T04:20:52;-1.51;99.99
64499;SHT31;51087;55.718;21.122;2022-12-24T04:23:18;-1.54;99.99
64499;SHT31;51087;55.718;21.122;2022-12-24T04:25:43;-1.55;99.99
64499;SHT31;51087;55.718;21.122;2022-12-24T04:28:09;-1.55;99.99
64499;SHT31;51087;55.718;21.122;2022-12-24T04:30:34;-1.71;99.99
64499;SHT31;51087;55.718;21.122;2022-12-24T04:33:00;-1.75;99.99
64499;SHT31;51087;55.718;21.122;2022-12-24T04:35:25;-1.81;99.99
64499;SHT31;51087;55.718;21.122;2022-12-24T04:37:50;-1.83;99.99
64499;SHT31;51087;55.718;21.122;2022-12-24T04:40:16;-1.85;99.99
64499;SHT31;51087;55.718;21.122;2022-12-24T04:42:41;-1.79;99.99
64499;SHT31;51087;55.718;21.122;2022-12-24T04:45:07;-1.81;99.99
64499;SHT31;51087;55.718;21.122;2022-12-24T04:47:33;-1.88;99.99
64499;SHT31;51087;55.718;21.122;2022-12-24T04:49:58;-1.93;99.99
64499;SHT31;51087;55.718;21.122;2022-12-24T04:52:26;-1.93;99.99
64499;SHT31;51087;55.718;21.122;2022-12-24T04:54:51;-1.86;99.99
64499;SHT31;51087;55.718;21.122;2022-12-24T04:57:16;-1.81;99.99
64499;SHT31;51087;55.718;21.122;2022-12-24T04:59:42;-1.78;99.99
64499;SHT31;51087;55.718;21.122;2022-12-24T05:02:07;-1.62;99.99
64499;SHT31;51087;55.718;21.122;2022-12-24T05:04:33;-1.64;99.99
64499;SHT31;51087;55.718;21.122;2022-12-24T05:06:58;-1.72;99.99
64499;SHT31;51087;55.718;21.122;2022-12-24T05:09:23;-1.75;99.99
64499;SHT31;51087;55.718;21.122;2022-12-24T05:11:49;-1.79;99.99
64499;SHT31;51087;55.718;21.122;2022-12-24T05:14:14;-1.78;99.99
64499;SHT31;51087;55.718;21.122;2022-12-24T05:16:39;-1.81;99.99
64499;SHT31;51087;55.718;21.122;2022-12-24T05:19:05;-1.85;99.99
64499;SHT31;51087;55.718;21.122;2022-12-24T05:21:30;-1.91;99.99
64499;SHT31;51087;55.718;21.122;2022-12-24T05:23:56;-1.98;99.99
64499;SHT31;51087;55.718;21.122;2022-12-24T05:26:52;-2.03;99.99
64499;SHT31;51087;55.718;21.122;2022-12-24T05:29:18;-2.06;99.99
64499;SHT31;51087;55.718;21.122;2022-12-24T05:31:44;-2.14;99.99
64499;SHT31;51087;55.718;21.122;2022-12-24T05:34:11;-2.27;99.99
64499;SHT31;51087;55.718;21.122;2022-12-24T05:36:37;-2.33;99.99
64499;SHT31;51087;55.718;21.122;2022-12-24T05:39:03;-2.38;99.99
64499;SHT31;51087;55.718;21.122;2022-12-24T05:41:29;-2.40;99.99
64499;SHT31;51087;55.718;21.122;2022-12-24T05:43:55;-2.48;99.99
64499;SHT31;51087;55.718;21.122;2022-12-24T05:46:21;-2.40;99.99
64499;SHT31;51087;55.718;21.122;2022-12-24T05:48:48;-2.27;99.99
64499;SHT31;51087;55.718;21.122;2022-12-24T05:51:14;-2.20;99.99
64499;SHT31;51087;55.718;21.122;2022-12-24T05:53:43;-2.27;99.99
64499;SHT31;51087;55.718;21.122;2022-12-24T05:56:16;-2.32;99.99
64499;SHT31;51087;55.718;21.122;2022-12-24T05:58:44;-2.32;99.99
64499;SHT31;51087;55.718;21.122;2022-12-24T06:01:09;-2.33;99.99
64499;SHT31;51087;55.718;21.122;2022-12-24T06:03:35;-2.37;99.99
64499;SHT31;51087;55.718;21.122;2022-12-24T06:08:32;-2.43;99.99
64499;SHT31;51087;55.718;21.122;2022-12-24T06:10:59;-2.51;99.99
64499;SHT31;51087;55.718;21.122;2022-12-24T06:13:25;-2.56;99.99
64499;SHT31;51087;55.718;21.122;2022-12-24T06:15:53;-2.48;99.99
64499;SHT31;51087;55.718;21.122;2022-12-24T06:18:19;-2.43;99.99
64499;SHT31;51087;55.718;21.122;2022-12-24T06:20:44;-2.46;99.99
64499;SHT31;51087;55.718;21.122;2022-12-24T06:23:10;-2.48;99.99
64499;SHT31;51087;55.718;21.122;2022-12-24T06:25:35;-2.44;99.99
64499;SHT31;51087;55.718;21.122;2022-12-24T06:28:00;-2.44;99.99
64499;SHT31;51087;55.718;21.122;2022-12-24T06:30:26;-2.44;99.99
64499;SHT31;51087;55.718;21.122;2022-12-24T06:32:51;-2.46;99.99
64499;SHT31;51087;55.718;21.122;2022-12-24T06:35:17;-2.62;99.99
64499;SHT31;51087;55.718;21.122;2022-12-24T06:37:42;-2.69;99.99
64499;SHT31;51087;55.718;21.122;2022-12-24T06:40:08;-2.75;99.99
64499;SHT31;51087;55.718;21.122;2022-12-24T06:42:33;-2.75;99.99
64499;SHT31;51087;55.718;21.122;2022-12-24T06:44:59;-2.81;99.99
64499;SHT31;51087;55.718;21.122;2022-12-24T06:47:24;-2.82;99.99
64499;SHT31;51087;55.718;21.122;2022-12-24T06:49:50;-2.84;99.99
64499;SHT31;51087;55.718;21.122;2022-12-24T06:52:15;-2.84;99.99
64499;SHT31;51087;55.718;21.122;2022-12-24T06:54:40;-2.81;99.99
64499;SHT31;51087;55.718;21.122;2022-12-24T06:57:06;-2.93;99.99
64499;SHT31;51087;55.718;21.122;2022-12-24T06:59:31;-2.91;99.99
64499;SHT31;51087;55.718;21.122;2022-12-24T07:01:57;-2.92;99.99
64499;SHT31;51087;55.718;21.122;2022-12-24T07:04:22;-2.91;99.99
64499;SHT31;51087;55.718;21.122;2022-12-24T07:06:48;-2.99;99.99
64499;SHT31;51087;55.718;21.122;2022-12-24T07:09:13;-3.05;99.99
64499;SHT31;51087;55.718;21.122;2022-12-24T07:11:39;-3.09;99.99
64499;SHT31;51087;55.718;21.122;2022-12-24T07:14:04;-3.05;99.99
64499;SHT31;51087;55.718;21.122;2022-12-24T07:16:29;-3.00;99.99
64499;SHT31;51087;55.718;21.122;2022-12-24T07:18:55;-2.93;99.99
64499;SHT31;51087;55.718;21.122;2022-12-24T07:21:20;-2.96;99.99
64499;SHT31;51087;55.718;21.122;2022-12-24T07:23:46;-2.88;99.99
64499;SHT31;51087;55.718;21.122;2022-12-24T07:26:11;-2.89;99.99
64499;SHT31;51087;55.718;21.122;2022-12-24T07:28:37;-3.00;99.99
64499;SHT31;51087;55.718;21.122;2022-12-24T07:31:02;-2.97;99.99
64499;SHT31;51087;55.718;21.122;2022-12-24T07:33:28;-2.95;99.99
64499;SHT31;51087;55.718;21.122;2022-12-24T07:36:04;-2.78;99.99
64499;SHT31;51087;55.718;21.122;2022-12-24T07:38:31;-2.60;99.99
64499;SHT31;51087;55.718;21.122;2022-12-24T07:40:57;-2.50;99.99
64499;SHT31;51087;55.718;21.122;2022-12-24T07:43:23;-2.37;99.99
64499;SHT31;51087;55.718;21.122;2022-12-24T07:45:49;-2.18;99.99
64499;SHT31;51087;55.718;21.122;2022-12-24T07:48:14;-2.05;99.99
64499;SHT31;51087;55.718;21.122;2022-12-24T07:50:40;-1.85;99.99
64499;SHT31;51087;55.718;21.122;2022-12-24T07:53:06;-1.64;99.99
64499;SHT31;51087;55.718;21.122;2022-12-24T07:55:31;-1.36;99.99
64499;SHT31;51087;55.718;21.122;2022-12-24T07:57:56;-1.12;99.99
64499;SHT31;51087;55.718;21.122;2022-12-24T08:00:23;-0.96;99.99
64499;SHT31;51087;55.718;21.122;2022-12-24T08:02:48;-0.96;99.99
64499;SHT31;51087;55.718;21.122;2022-12-24T08:05:14;-0.75;99.99
64499;SHT31;51087;55.718;21.122;2022-12-24T08:07:41;-0.54;99.99
64499;SHT31;51087;55.718;21.122;2022-12-24T08:10:06;-0.48;99.99
64499;SHT31;51087;55.718;21.122;2022-12-24T08:12:32;-0.41;99.99
64499;SHT31;51087;55.718;21.122;2022-12-24T08:14:57;-0.41;99.99
64499;SHT31;51087;55.718;21.122;2022-12-24T08:17:23;-0.65;99.99
64499;SHT31;51087;55.718;21.122;2022-12-24T08:19:48;-0.77;99.99
64499;SHT31;51087;55.718;21.122;2022-12-24T08:22:14;-0.71;99.99
64499;SHT31;51087;55.718;21.122;2022-12-24T08:24:39;-0.81;99.99
64499;SHT31;51087;55.718;21.122;2022-12-24T08:27:05;-1.02;99.99
64499;SHT31;51087;55.718;21.122;2022-12-24T08:29:30;-1.06;99.99
64499;SHT31;51087;55.718;21.122;2022-12-24T08:31:56;-1.09;99.99
64499;SHT31;51087;55.718;21.122;2022-12-24T08:34:21;-1.02;99.99
64499;SHT31;51087;55.718;21.122;2022-12-24T08:36:46;-1.07;99.99
64499;SHT31;51087;55.718;21.122;2022-12-24T08:39:12;-0.88;99.99
64499;SHT31;51087;55.718;21.122;2022-12-24T08:41:37;-0.81;99.99
64499;SHT31;51087;55.718;21.122;2022-12-24T08:44:03;-0.53;99.99
64499;SHT31;51087;55.718;21.122;2022-12-24T08:46:28;0.12;99.99
64499;SHT31;51087;55.718;21.122;2022-12-24T08:48:54;0.24;99.99
64499;SHT31;51087;55.718;21.122;2022-12-24T08:51:19;0.33;99.99
64499;SHT31;51087;55.718;21.122;2022-12-24T08:53:45;0.60;99.99
64499;SHT31;51087;55.718;21.122;2022-12-24T08:56:11;0.84;99.99
64499;SHT31;51087;55.718;21.122;2022-12-24T08:58:37;1.35;99.99
64499;SHT31;51087;55.718;21.122;2022-12-24T09:01:10;2.05;99.99
64499;SHT31;51087;55.718;21.122;2022-12-24T09:03:36;2.75;99.99
64499;SHT31;51087;55.718;21.122;2022-12-24T09:06:03;2.72;95.61
64499;SHT31;51087;55.718;21.122;2022-12-24T09:08:29;2.43;96.44
64499;SHT31;51087;55.718;21.122;2022-12-24T09:10:55;2.50;97.50
64499;SHT31;51087;55.718;21.122;2022-12-24T09:13:20;1.98;96.79
64499;SHT31;51087;55.718;21.122;2022-12-24T09:15:53;1.46;97.86
64499;SHT31;51087;55.718;21.122;2022-12-24T09:18:19;1.11;99.31
64499;SHT31;51087;55.718;21.122;2022-12-24T09:20:44;0.69;99.05
64499;SHT31;51087;55.718;21.122;2022-12-24T09:23:10;0.50;99.99
64499;SHT31;51087;55.718;21.122;2022-12-24T09:25:42;0.36;99.99
64499;SHT31;51087;55.718;21.122;2022-12-24T09:28:08;0.18;99.99
64499;SHT31;51087;55.718;21.122;2022-12-24T09:30:35;0.09;99.99
64499;SHT31;51087;55.718;21.122;2022-12-24T09:33:00;-0.02;99.99
64499;SHT31;51087;55.718;21.122;2022-12-24T09:35:26;-0.05;99.99
64499;SHT31;51087;55.718;21.122;2022-12-24T09:37:51;-0.05;99.99
64499;SHT31;51087;55.718;21.122;2022-12-24T09:40:38;-0.05;99.99
64499;SHT31;51087;55.718;21.122;2022-12-24T09:43:22;-0.05;99.99
64499;SHT31;51087;55.718;21.122;2022-12-24T09:46:08;-0.14;99.99
64499;SHT31;51087;55.718;21.122;2022-12-24T09:48:42;-0.14;99.99
64499;SHT31;51087;55.718;21.122;2022-12-24T09:51:24;-0.16;99.99
64499;SHT31;51087;55.718;21.122;2022-12-24T09:54:09;-0.16;99.99
64499;SHT31;51087;55.718;21.122;2022-12-24T09:56:39;-0.20;99.99
64499;SHT31;51087;55.718;21.122;2022-12-24T09:59:10;-0.17;99.99
64499;SHT31;51087;55.718;21.122;2022-12-24T10:01:36;-0.13;99.99
64499;SHT31;51087;55.718;21.122;2022-12-24T10:04:06;-0.16;99.99
64499;SHT31;51087;55.718;21.122;2022-12-24T10:07:07;-0.23;99.99
64499;SHT31;51087;55.718;21.122;2022-12-24T10:12:48;-0.26;99.99
64499;SHT31;51087;55.718;21.122;2022-12-24T10:15:37;-0.23;99.99
64499;SHT31;51087;55.718;21.122;2022-12-24T10:23:29;-0.33;99.99
64499;SHT31;51087;55.718;21.122;2022-12-24T10:28:39;-0.16;99.99
64499;SHT31;51087;55.718;21.122;2022-12-24T10:31:07;-0.17;99.99
64499;SHT31;51087;55.718;21.122;2022-12-24T10:33:44;-0.07;99.99
64499;SHT31;51087;55.718;21.122;2022-12-24T10:36:22;-0.07;99.55
64499;SHT31;51087;55.718;21.122;2022-12-24T10:38:48;-0.09;99.99
64499;SHT31;51087;55.718;21.122;2022-12-24T10:41:13;-0.05;99.18
64499;SHT31;51087;55.718;21.122;2022-12-24T10:43:40;-0.16;99.99
64499;SHT31;51087;55.718;21.122;2022-12-24T10:48:43;-0.13;99.99
64499;SHT31;51087;55.718;21.122;2022-12-24T10:51:18;-0.19;99.99
64499;SHT31;51087;55.718;21.122;2022-12-24T10:53:59;-0.20;99.99
64499;SHT31;51087;55.718;21.122;2022-12-24T10:56:25;-0.19;99.99
64499;SHT31;51087;55.718;21.122;2022-12-24T10:58:53;-0.13;99.99
64499;SHT31;51087;55.718;21.122;2022-12-24T11:01:20;-0.19;99.99
64499;SHT31;51087;55.718;21.122;2022-12-24T11:03:58;-0.24;99.99
64499;SHT31;51087;55.718;21.122;2022-12-24T11:06:24;-0.31;99.99
64499;SHT31;51087;55.718;21.122;2022-12-24T11:08:49;-0.26;99.99
64499;SHT31;51087;55.718;21.122;2022-12-24T11:11:19;-0.26;99.99
64499;SHT31;51087;55.718;21.122;2022-12-24T11:16:32;-0.29;99.99
64499;SHT31;51087;55.718;21.122;2022-12-24T11:19:04;-0.36;99.99
64499;SHT31;51087;55.718;21.122;2022-12-24T11:21:31;-0.41;99.99
64499;SHT31;51087;55.718;21.122;2022-12-24T11:24:00;-0.44;99.99
64499;SHT31;51087;55.718;21.122;2022-12-24T11:26:29;-0.45;99.99
64499;SHT31;51087;55.718;21.122;2022-12-24T11:29:23;-0.31;99.69
64499;SHT31;51087;55.718;21.122;2022-12-24T11:31:49;-0.26;99.96
64499;SHT31;51087;55.718;21.122;2022-12-24T11:34:28;-0.21;99.57
64499;SHT31;51087;55.718;21.122;2022-12-24T11:37:08;-0.23;99.46
64499;SHT31;51087;55.718;21.122;2022-12-24T11:39:39;-0.16;99.53
64499;SHT31;51087;55.718;21.122;2022-12-24T11:42:05;-0.26;99.77
64499;SHT31;51087;55.718;21.122;2022-12-24T11:44:31;-0.37;99.99
64499;SHT31;51087;55.718;21.122;2022-12-24T11:46:56;-0.42;99.99
64499;SHT31;51087;55.718;21.122;2022-12-24T11:49:28;-0.45;99.99
64499;SHT31;51087;55.718;21.122;2022-12-24T11:52:16;-0.44;99.99
64499;SHT31;51087;55.718;21.122;2022-12-24T11:55:11;-0.47;99.99
64499;SHT31;51087;55.718;21.122;2022-12-24T11:57:58;-0.42;99.63
64499;SHT31;51087;55.718;21.122;2022-12-24T12:00:26;-0.42;99.22
64499;SHT31;51087;55.718;21.122;2022-12-24T12:02:53;-0.47;99.20
64499;SHT31;51087;55.718;21.122;2022-12-24T12:05:24;-0.51;99.64
64499;SHT31;51087;55.718;21.122;2022-12-24T12:07:54;-0.42;98.97
64499;SHT31;51087;55.718;21.122;2022-12-24T12:10:30;-0.56;99.52
64499;SHT31;51087;55.718;21.122;2022-12-24T12:13:04;-0.51;99.39
64499;SHT31;51087;55.718;21.122;2022-12-24T12:15:36;-0.48;98.42
64499;SHT31;51087;55.718;21.122;2022-12-24T12:18:25;-0.56;98.47
64499;SHT31;51087;55.718;21.122;2022-12-24T12:21:20;-0.58;98.37
64499;SHT31;51087;55.718;21.122;2022-12-24T12:23:57;-0.58;98.80
64499;SHT31;51087;55.718;21.122;2022-12-24T12:26:28;-0.51;97.98
64499;SHT31;51087;55.718;21.122;2022-12-24T12:31:54;-0.50;96.87
64499;SHT31;51087;55.718;21.122;2022-12-24T12:37:06;-0.60;98.01
64499;SHT31;51087;55.718;21.122;2022-12-24T12:39:35;-0.67;98.66
64499;SHT31;51087;55.718;21.122;2022-12-24T12:42:15;-0.71;98.45
64499;SHT31;51087;55.718;21.122;2022-12-24T12:51:14;-0.68;98.35
64499;SHT31;51087;55.718;21.122;2022-12-24T12:54:12;-0.65;97.33
64499;SHT31;51087;55.718;21.122;2022-12-24T12:56:43;-0.74;98.40
64499;SHT31;51087;55.718;21.122;2022-12-24T12:59:42;-0.69;97.59
64499;SHT31;51087;55.718;21.122;2022-12-24T13:02:24;-0.68;97.11
64499;SHT31;51087;55.718;21.122;2022-12-24T13:13:04;-1.02;99.99
64499;SHT31;51087;55.718;21.122;2022-12-24T13:21:14;-1.19;99.99
64499;SHT31;51087;55.718;21.122;2022-12-24T13:23:42;-1.09;99.99
64499;SHT31;51087;55.718;21.122;2022-12-24T13:26:12;-1.12;99.99
64499;SHT31;51087;55.718;21.122;2022-12-24T13:28:38;-1.15;99.99
64499;SHT31;51087;55.718;21.122;2022-12-24T13:36:08;-1.24;99.99
64499;SHT31;51087;55.718;21.122;2022-12-24T13:38:54;-1.32;99.99
64499;SHT31;51087;55.718;21.122;2022-12-24T13:49:27;-1.58;99.99
64499;SHT31;51087;55.718;21.122;2022-12-24T13:57:40;-1.62;99.99
64499;SHT31;51087;55.718;21.122;2022-12-24T14:08:00;-1.83;99.99
64499;SHT31;51087;55.718;21.122;2022-12-24T14:10:35;-1.82;99.99
64499;SHT31;51087;55.718;21.122;2022-12-24T14:13:02;-1.83;99.99
64499;SHT31;51087;55.718;21.122;2022-12-24T14:16:00;-1.88;99.99
64499;SHT31;51087;55.718;21.122;2022-12-24T14:18:27;-1.91;99.99
64499;SHT31;51087;55.718;21.122;2022-12-24T14:20:55;-1.91;99.99
64499;SHT31;51087;55.718;21.122;2022-12-24T14:23:41;-1.85;99.99
64499;SHT31;51087;55.718;21.122;2022-12-24T14:26:14;-1.85;99.99
64499;SHT31;51087;55.718;21.122;2022-12-24T14:28:44;-1.88;99.99
64499;SHT31;51087;55.718;21.122;2022-12-24T14:31:16;-1.95;99.99
64499;SHT31;51087;55.718;21.122;2022-12-24T14:33:43;-2.03;99.99
64499;SHT31;51087;55.718;21.122;2022-12-24T14:36:10;-2.06;99.99
64499;SHT31;51087;55.718;21.122;2022-12-24T14:38:39;-2.18;99.99
64499;SHT31;51087;55.718;21.122;2022-12-24T14:44:27;-2.48;99.99
64499;SHT31;51087;55.718;21.122;2022-12-24T14:47:05;-2.48;99.99
64499;SHT31;51087;55.718;21.122;2022-12-24T14:50:36;-2.43;99.99
64499;SHT31;51087;55.718;21.122;2022-12-24T14:52:47;-2.44;99.99
64499;SHT31;51087;55.718;21.122;2022-12-24T14:55:38;-2.50;99.99
64499;SHT31;51087;55.718;21.122;2022-12-24T15:00:49;-2.56;99.99
64499;SHT31;51087;55.718;21.122;2022-12-24T15:03:17;-2.65;99.99
64499;SHT31;51087;55.718;21.122;2022-12-24T15:05:43;-2.58;99.99
64499;SHT31;51087;55.718;21.122;2022-12-24T15:08:31;-2.69;99.99
64499;SHT31;51087;55.718;21.122;2022-12-24T15:11:03;-2.69;99.99
64499;SHT31;51087;55.718;21.122;2022-12-24T15:16:00;-2.76;99.99
64499;SHT31;51087;55.718;21.122;2022-12-24T15:18:29;-2.76;99.99
64499;SHT31;51087;55.718;21.122;2022-12-24T15:20:59;-2.75;99.99
64499;SHT31;51087;55.718;21.122;2022-12-24T15:23:36;-2.86;99.99
64499;SHT31;51087;55.718;21.122;2022-12-24T15:26:25;-2.92;99.99
64499;SHT31;51087;55.718;21.122;2022-12-24T15:28:51;-3.02;99.99
64499;SHT31;51087;55.718;21.122;2022-12-24T15:31:21;-3.06;99.99
64499;SHT31;51087;55.718;21.122;2022-12-24T15:33:50;-3.05;99.99
64499;SHT31;51087;55.718;21.122;2022-12-24T15:36:31;-3.02;99.99
64499;SHT31;51087;55.718;21.122;2022-12-24T15:39:02;-3.03;99.99
64499;SHT31;51087;55.718;21.122;2022-12-24T15:41:48;-3.02;99.99
64499;SHT31;51087;55.718;21.122;2022-12-24T15:44:34;-3.20;99.99
64499;SHT31;51087;55.718;21.122;2022-12-24T15:47:02;-3.10;99.99
64499;SHT31;51087;55.718;21.122;2022-12-24T15:49:30;-3.06;99.99
64499;SHT31;51087;55.718;21.122;2022-12-24T15:52:09;-2.96;99.99
64499;SHT31;51087;55.718;21.122;2022-12-24T15:54:35;-2.92;99.99
64499;SHT31;51087;55.718;21.122;2022-12-24T15:57:13;-2.76;99.99
64499;SHT31;51087;55.718;21.122;2022-12-24T15:59:39;-2.85;99.99
64499;SHT31;51087;55.718;21.122;2022-12-24T16:04:49;-2.88;99.99
64499;SHT31;51087;55.718;21.122;2022-12-24T16:07:25;-2.79;99.99
64499;SHT31;51087;55.718;21.122;2022-12-24T16:10:23;-2.79;99.99
64499;SHT31;51087;55.718;21.122;2022-12-24T16:12:48;-2.86;99.99
64499;SHT31;51087;55.718;21.122;2022-12-24T16:15:14;-2.91;99.99
64499;SHT31;51087;55.718;21.122;2022-12-24T16:17:40;-2.86;99.99
64499;SHT31;51087;55.718;21.122;2022-12-24T16:20:16;-2.88;99.99
64499;SHT31;51087;55.718;21.122;2022-12-24T16:22:45;-2.88;99.99
64499;SHT31;51087;55.718;21.122;2022-12-24T16:25:21;-2.99;99.99
64499;SHT31;51087;55.718;21.122;2022-12-24T16:27:48;-2.93;99.99
64499;SHT31;51087;55.718;21.122;2022-12-24T16:30:14;-3.00;99.99
64499;SHT31;51087;55.718;21.122;2022-12-24T16:32:39;-2.97;99.99
64499;SHT31;51087;55.718;21.122;2022-12-24T16:35:16;-2.99;99.99
64499;SHT31;51087;55.718;21.122;2022-12-24T16:37:43;-3.02;99.99
64499;SHT31;51087;55.718;21.122;2022-12-24T16:40:13;-3.10;99.99
64499;SHT31;51087;55.718;21.122;2022-12-24T16:42:38;-3.14;99.99
64499;SHT31;51087;55.718;21.122;2022-12-24T16:45:24;-3.16;99.99
64499;SHT31;51087;55.718;21.122;2022-12-24T16:47:50;-3.19;99.99
64499;SHT31;51087;55.718;21.122;2022-12-24T16:50:16;-3.23;99.99
64499;SHT31;51087;55.718;21.122;2022-12-24T16:52:41;-3.33;99.99
64499;SHT31;51087;55.718;21.122;2022-12-24T16:55:08;-3.33;99.99
64499;SHT31;51087;55.718;21.122;2022-12-24T16:57:38;-3.34;99.99
64499;SHT31;51087;55.718;21.122;2022-12-24T17:00:17;-3.40;99.99
64499;SHT31;51087;55.718;21.122;2022-12-24T17:02:44;-3.44;99.99
64499;SHT31;51087;55.718;21.122;2022-12-24T17:05:10;-3.33;99.99
64499;SHT31;51087;55.718;21.122;2022-12-24T17:07:35;-3.30;99.99
64499;SHT31;51087;55.718;21.122;2022-12-24T17:10:01;-3.30;99.99
64499;SHT31;51087;55.718;21.122;2022-12-24T17:12:27;-3.37;99.99
64499;SHT31;51087;55.718;21.122;2022-12-24T17:14:52;-3.34;99.99
64499;SHT31;51087;55.718;21.122;2022-12-24T17:17:22;-3.39;99.99
64499;SHT31;51087;55.718;21.122;2022-12-24T17:19:48;-3.41;99.99
64499;SHT31;51087;55.718;21.122;2022-12-24T17:22:13;-3.48;99.99
64499;SHT31;51087;55.718;21.122;2022-12-24T17:24:39;-3.54;99.99
64499;SHT31;51087;55.718;21.122;2022-12-24T17:27:05;-3.61;99.99